KLNR/LNR METAR and TAF weather

Enter ICAO airport designator
Station Type Date Time Source
KLNR METAR 2019/11/15 04:56 UTC NOAA

KLNR 150456Z AUTO 29005KT 9SM CLR M06/M08 A3028 RMK AO2 SLP258 T10561083


Station Type Date Time Source
KLNR Decoded METAR 2019/11/15 04:56 UTC NOAA

LONE ROCK TRI-COUNTY REG, WI, United States (KLNR) 43-13N 090-11W 217M
Nov 14, 2019 - 11:56 PM EST / 2019.11.15 0456 UTC
Wind: from the WNW (290 degrees) at 6 MPH (5 KT):0
Visibility: 9 mile(s):0
Sky conditions: clear
Temperature: 21.9 F (-5.6 C)
Windchill: 14 F (-10 C):1
Dew Point: 17.1 F (-8.3 C)
Relative Humidity: 81%
Pressure (altimeter): 30.28 in. Hg (1025 hPa)
ob: KLNR 150456Z AUTO 29005KT 9SM CLR M06/M08 A3028 RMK AO2 SLP258 T10561083
cycle: 5

Station Type Date Time Source
KLNR TAF UTC NOAA

Error!

Example: see airport list